Time;durP1;ratioP1;P1;durP2;ratioP2;P2;SDS_P1;SDS_P2;PMS_P1;PMS_P2;Temp;Humidity;BMP_temperature;BMP_pressure;BME280_temperature;BME280_humidity;BME280_pressure;Samples;Min_cycle;Max_cycle;Signal;HPM_P1;HPM_P2
2021/11/04 00:00:22;;;;;;;58.37;32.70;;;7.10;94.30;;;;;;5058072;28;20179;-92
2021/11/04 00:02:48;;;;;;;55.90;32.80;;;7.10;94.30;;;;;;5056748;28;20199;-91
2021/11/04 00:05:15;;;;;;;64.97;34.27;;;7.10;94.30;;;;;;5056556;28;20195;-91
2021/11/04 00:07:41;;;;;;;56.97;33.37;;;7.10;94.30;;;;;;5056361;28;20183;-92
2021/11/04 00:10:08;;;;;;;61.67;34.97;;;7.10;94.30;;;;;;5056784;28;20175;-90
2021/11/04 00:12:34;;;;;;;61.50;34.60;;;7.10;94.30;;;;;;5057226;28;20175;-92
2021/11/04 00:15:00;;;;;;;63.97;34.50;;;7.10;94.40;;;;;;5060811;28;20206;-90
2021/11/04 00:17:26;;;;;;;60.17;33.33;;;7.10;94.30;;;;;;5077300;28;20219;-91
2021/11/04 00:19:52;;;;;;;61.67;33.67;;;7.10;94.30;;;;;;5080922;28;20167;-90
2021/11/04 00:22:17;;;;;;;64.03;35.13;;;7.10;94.40;;;;;;5057284;28;20171;-91
2021/11/04 00:24:43;;;;;;;60.53;34.07;;;7.10;94.40;;;;;;5056255;28;20673;-90
2021/11/04 00:27:09;;;;;;;64.23;35.00;;;7.10;94.40;;;;;;5055941;28;20266;-90
2021/11/04 00:29:35;;;;;;;61.93;34.13;;;7.10;94.40;;;;;;5056024;28;20225;-90
2021/11/04 00:32:01;;;;;;;64.63;35.23;;;7.10;94.40;;;;;;5055569;28;20171;-92
2021/11/04 00:34:28;;;;;;;61.40;35.83;;;7.10;94.40;;;;;;5055596;28;20722;-90
2021/11/04 00:36:54;;;;;;;64.60;35.77;;;7.10;94.40;;;;;;5056082;28;20179;-91
2021/11/04 00:39:20;;;;;;;64.47;36.20;;;7.10;94.50;;;;;;5056135;28;20177;-92
2021/11/04 00:41:45;;;;;;;61.47;34.50;;;7.10;94.50;;;;;;5056735;28;20256;-91
2021/11/04 00:44:11;;;;;;;64.23;34.33;;;7.10;94.40;;;;;;5056621;28;20199;-91
2021/11/04 00:46:39;;;;;;;59.50;34.40;;;7.10;94.40;;;;;;5057296;28;20263;-91
2021/11/04 00:49:04;;;;;;;60.07;31.20;;;7.10;94.40;;;;;;5058631;28;20600;-92
2021/11/04 00:51:30;;;;;;;60.97;32.70;;;7.10;94.40;;;;;;5061467;28;20185;-91
2021/11/04 00:53:56;;;;;;;59.87;32.40;;;7.10;94.40;;;;;;5062148;28;20179;-91
2021/11/04 00:56:23;;;;;;;55.97;31.13;;;7.10;94.40;;;;;;5062017;28;20222;-91
2021/11/04 00:58:49;;;;;;;60.13;32.67;;;7.10;94.40;;;;;;5061570;28;20232;-92
2021/11/04 01:01:19;;;;;;;58.13;31.83;;;7.10;94.40;;;;;;5079463;28;20176;-92
2021/11/04 01:03:46;;;;;;;59.67;32.33;;;7.10;94.40;;;;;;5063203;28;20221;-91
2021/11/04 01:06:12;;;;;;;56.87;32.63;;;7.10;94.40;;;;;;5064243;28;20204;-92
2021/11/04 01:08:38;;;;;;;57.70;32.10;;;7.10;94.30;;;;;;5063360;28;20325;-91
2021/11/04 01:11:04;;;;;;;60.27;31.30;;;7.10;94.30;;;;;;5080983;28;20643;-91
2021/11/04 01:13:29;;;;;;;52.43;30.27;;;7.10;94.30;;;;;;5062359;28;20207;-91
2021/11/04 01:15:55;;;;;;;53.00;31.23;;;7.20;94.30;;;;;;5062302;28;20219;-92
2021/11/04 01:18:21;;;;;;;53.87;31.10;;;7.10;94.30;;;;;;5080705;28;20221;-91
2021/11/04 01:20:47;;;;;;;58.00;31.17;;;7.10;94.30;;;;;;5063312;28;20178;-91
2021/11/04 01:23:12;;;;;;;54.53;30.43;;;7.10;94.30;;;;;;5062860;28;20211;-91
2021/11/04 01:25:47;;;;;;;54.80;32.40;;;7.10;94.30;;;;;;5062686;28;20201;-91
2021/11/04 01:28:15;;;;;;;56.17;31.93;;;7.10;94.30;;;;;;5080115;28;20152;-91
2021/11/04 01:30:41;;;;;;;53.87;30.47;;;7.10;94.30;;;;;;5062147;28;20172;-93
2021/11/04 01:33:06;;;;;;;54.37;30.77;;;7.20;94.30;;;;;;5062382;28;20183;-92
2021/11/04 01:35:32;;;;;;;52.37;31.70;;;7.20;94.40;;;;;;5062126;28;20195;-91
2021/11/04 01:37:59;;;;;;;56.03;30.67;;;7.20;94.30;;;;;;5061943;28;20171;-93
2021/11/04 01:40:26;;;;;;;51.73;31.83;;;7.20;94.30;;;;;;5061711;28;20179;-92
2021/11/04 01:42:52;;;;;;;58.03;32.33;;;7.20;94.30;;;;;;5061579;28;20199;-91
2021/11/04 01:45:17;;;;;;;55.57;31.53;;;7.20;94.30;;;;;;5060728;28;20202;-92
2021/11/04 01:47:46;;;;;;;60.67;32.30;;;7.20;94.30;;;;;;5060273;28;20179;-91
2021/11/04 01:50:13;;;;;;;56.07;31.10;;;7.20;94.30;;;;;;5060837;28;20175;-92
2021/11/04 01:52:39;;;;;;;50.83;30.87;;;7.20;94.30;;;;;;5060295;28;20179;-91
2021/11/04 01:55:05;;;;;;;51.17;29.33;;;7.20;94.30;;;;;;5060240;28;20207;-92
2021/11/04 01:57:31;;;;;;;49.57;29.33;;;7.20;94.30;;;;;;5078751;28;20224;-92
2021/11/04 01:59:57;;;;;;;49.37;29.07;;;7.20;94.30;;;;;;5060468;28;20270;-92
2021/11/04 02:02:26;;;;;;;54.10;30.87;;;7.20;94.30;;;;;;5060504;28;20176;-91
2021/11/04 02:04:54;;;;;;;53.33;29.70;;;7.20;94.30;;;;;;5060013;28;20561;-92
2021/11/04 02:07:52;;;;;;;49.30;29.90;;;7.20;94.30;;;;;;5059748;28;20172;-91
2021/11/04 02:10:22;;;;;;;56.43;30.13;;;7.20;94.30;;;;;;5059780;28;20158;-92
2021/11/04 02:13:01;;;;;;;51.20;29.73;;;7.20;94.30;;;;;;5077845;28;20185;-91
2021/11/04 02:15:30;;;;;;;50.13;29.73;;;7.20;94.30;;;;;;5059931;28;20297;-92
2021/11/04 02:17:58;;;;;;;48.20;30.33;;;7.20;94.30;;;;;;5059148;28;20175;-91
2021/11/04 02:20:36;;;;;;;48.90;30.23;;;7.20;94.30;;;;;;5059808;28;20175;-91
2021/11/04 02:23:12;;;;;;;51.93;31.03;;;7.20;94.30;;;;;;5059451;28;20713;-92
2021/11/04 02:25:39;;;;;;;52.33;32.33;;;7.20;94.30;;;;;;5059310;28;20237;-92
2021/11/04 02:28:12;;;;;;;55.60;31.23;;;7.20;94.30;;;;;;5059069;28;20175;-92
2021/11/04 02:30:39;;;;;;;56.87;31.10;;;7.20;94.40;;;;;;5058717;28;20721;-92
2021/11/04 02:33:06;;;;;;;55.80;32.43;;;7.20;94.40;;;;;;5058724;28;20175;-91
2021/11/04 02:35:32;;;;;;;57.50;32.37;;;7.20;94.40;;;;;;5058839;28;20195;-92
2021/11/04 02:37:58;;;;;;;56.07;32.20;;;7.20;94.40;;;;;;5076349;28;20197;-92
2021/11/04 02:40:24;;;;;;;59.53;33.80;;;7.10;94.40;;;;;;5059654;28;20675;-92
2021/11/04 02:42:51;;;;;;;64.50;32.70;;;7.20;94.50;;;;;;5059688;28;20207;-92
2021/11/04 02:45:21;;;;;;;65.17;34.67;;;7.20;94.50;;;;;;5059099;28;20195;-92
2021/11/04 02:47:47;;;;;;;67.03;34.57;;;7.20;94.50;;;;;;5059001;28;20167;-92
2021/11/04 02:50:14;;;;;;;65.67;35.57;;;7.20;94.50;;;;;;5059394;28;20220;-92
2021/11/04 02:52:39;;;;;;;63.17;34.30;;;7.20;94.50;;;;;;5059855;28;20235;-91
2021/11/04 02:55:07;;;;;;;60.17;33.20;;;7.20;94.60;;;;;;5059346;28;20227;-91
2021/11/04 02:57:44;;;;;;;59.47;34.13;;;7.20;94.60;;;;;;5059238;28;20175;-92
2021/11/04 03:00:12;;;;;;;60.63;34.87;;;7.20;94.60;;;;;;5059531;28;20217;-92
2021/11/04 03:02:37;;;;;;;70.27;36.50;;;7.20;94.60;;;;;;5059498;28;20206;-92
2021/11/04 03:05:03;;;;;;;68.03;36.03;;;7.20;94.60;;;;;;5059569;28;20211;-92
2021/11/04 03:07:29;;;;;;;65.60;35.60;;;7.20;94.60;;;;;;5059308;28;20610;-92
2021/11/04 03:09:55;;;;;;;72.20;34.90;;;7.20;94.60;;;;;;5059963;28;20244;-91
2021/11/04 03:12:20;;;;;;;76.03;37.67;;;7.20;94.70;;;;;;5059823;28;20175;-92
2021/11/04 03:14:48;;;;;;;73.67;37.47;;;7.20;94.70;;;;;;5060181;28;20222;-93
2021/11/04 03:17:14;;;;;;;74.93;39.37;;;7.20;94.70;;;;;;5060823;28;20175;-92
2021/11/04 03:19:41;;;;;;;76.90;40.53;;;7.20;94.80;;;;;;5060852;28;20175;-92
2021/11/04 03:22:07;;;;;;;79.13;39.47;;;7.20;94.80;;;;;;5061194;28;20228;-92
2021/11/04 03:24:33;;;;;;;89.23;41.33;;;7.20;94.80;;;;;;5061175;28;20201;-92
2021/11/04 03:27:04;;;;;;;89.10;40.77;;;7.20;94.80;;;;;;5062157;28;20171;-92
2021/11/04 03:29:33;;;;;;;86.37;39.03;;;7.20;94.80;;;;;;5062587;28;20178;-91
2021/11/04 03:32:01;;;;;;;84.03;39.77;;;7.20;94.80;;;;;;5062536;28;20182;-92
2021/11/04 03:34:27;;;;;;;75.30;39.57;;;7.20;94.80;;;;;;5062728;28;20179;-92
2021/11/04 03:36:54;;;;;;;79.83;39.50;;;7.20;94.80;;;;;;5063468;28;20701;-92
2021/11/04 03:39:21;;;;;;;81.97;39.53;;;7.20;94.80;;;;;;5063210;28;20228;-92
2021/11/04 03:41:51;;;;;;;76.47;38.53;;;7.10;94.80;;;;;;5063256;28;20195;-92
2021/11/04 03:44:19;;;;;;;80.17;37.93;;;7.10;94.80;;;;;;5062553;28;20678;-92
2021/11/04 03:46:46;;;;;;;80.93;40.33;;;7.10;94.80;;;;;;5062867;28;20232;-92
2021/11/04 03:49:13;;;;;;;74.23;38.23;;;7.10;94.80;;;;;;5062438;28;20208;-93
2021/11/04 03:51:40;;;;;;;83.47;39.13;;;7.10;94.80;;;;;;5062788;28;20186;-92
2021/11/04 03:54:06;;;;;;;79.87;38.17;;;7.10;94.80;;;;;;5062783;28;20203;-93
2021/11/04 03:56:32;;;;;;;82.47;40.03;;;7.10;94.80;;;;;;5061617;28;20569;-92
2021/11/04 03:58:58;;;;;;;76.10;39.23;;;7.10;94.80;;;;;;5061077;28;20237;-92
2021/11/04 04:01:24;;;;;;;86.80;39.43;;;7.20;94.80;;;;;;5079026;28;20226;-91
2021/11/04 04:03:50;;;;;;;76.80;39.43;;;7.10;94.80;;;;;;5061809;28;20199;-92
2021/11/04 04:06:20;;;;;;;75.63;37.83;;;7.20;94.80;;;;;;5061513;28;20191;-93
2021/11/04 04:08:49;;;;;;;75.67;35.93;;;7.10;94.70;;;;;;5060779;28;20191;-92
2021/11/04 04:11:15;;;;;;;79.77;37.53;;;7.20;94.70;;;;;;5078772;28;20167;-92
2021/11/04 04:13:40;;;;;;;71.87;36.93;;;7.10;94.70;;;;;;5060144;28;20175;-91
2021/11/04 04:16:06;;;;;;;75.37;37.37;;;7.20;94.70;;;;;;5060556;28;20218;-91
2021/11/04 04:18:32;;;;;;;79.13;39.13;;;7.10;94.70;;;;;;5060225;28;20592;-92
2021/11/04 04:20:58;;;;;;;83.40;37.43;;;7.10;94.70;;;;;;5059168;28;20181;-91
2021/11/04 04:23:24;;;;;;;74.13;36.80;;;7.10;94.70;;;;;;5058680;28;20202;-92
2021/11/04 04:25:49;;;;;;;72.27;36.10;;;7.10;94.60;;;;;;5059486;28;20206;-92
2021/11/04 04:28:15;;;;;;;77.70;38.20;;;7.10;94.60;;;;;;5059735;28;20182;-92
2021/11/04 04:30:41;;;;;;;73.33;36.10;;;7.10;94.60;;;;;;5058915;28;20194;-93
2021/11/04 04:33:07;;;;;;;71.67;37.20;;;7.10;94.60;;;;;;5059815;28;20171;-92
2021/11/04 04:35:32;;;;;;;75.33;36.30;;;7.10;94.60;;;;;;5059831;28;20202;-93
2021/11/04 04:37:58;;;;;;;69.60;36.63;;;7.10;94.60;;;;;;5060453;28;20217;-91
2021/11/04 04:40:23;;;;;;;66.97;36.13;;;7.10;94.60;;;;;;5059878;28;20180;-92
2021/11/04 04:42:49;;;;;;;73.27;35.70;;;7.10;94.60;;;;;;5059839;28;20241;-92
2021/11/04 04:45:16;;;;;;;70.37;36.77;;;7.10;94.60;;;;;;5060749;28;20202;-92
2021/11/04 04:47:42;;;;;;;70.80;36.13;;;7.10;94.60;;;;;;5060925;28;20258;-92
2021/11/04 04:50:09;;;;;;;69.97;36.17;;;7.10;94.60;;;;;;5060800;28;20172;-92
2021/11/04 04:52:35;;;;;;;66.90;35.40;;;7.10;94.60;;;;;;5060640;28;20343;-92
2021/11/04 04:55:02;;;;;;;65.40;36.10;;;7.10;94.60;;;;;;5061568;28;20199;-92
2021/11/04 04:57:28;;;;;;;70.83;37.00;;;7.10;94.60;;;;;;5060752;28;20171;-92
2021/11/04 04:59:55;;;;;;;72.83;36.70;;;7.10;94.60;;;;;;5060150;28;20167;-93
2021/11/04 05:02:22;;;;;;;63.93;35.33;;;7.10;94.60;;;;;;5060630;28;20224;-92
2021/11/04 05:04:48;;;;;;;72.47;36.57;;;7.10;94.60;;;;;;5058600;28;20210;-93
2021/11/04 05:07:15;;;;;;;65.40;34.17;;;7.10;94.60;;;;;;5060295;28;20171;-92
2021/11/04 05:09:41;;;;;;;69.10;34.33;;;7.10;94.60;;;;;;5059972;28;20167;-93
2021/11/04 05:12:07;;;;;;;68.83;34.30;;;7.10;94.60;;;;;;5058865;28;20670;-92
2021/11/04 05:14:33;;;;;;;68.13;34.03;;;7.10;94.50;;;;;;5059217;28;20518;-93
2021/11/04 05:16:59;;;;;;;74.43;35.97;;;7.10;94.60;;;;;;5059555;28;20213;-92
2021/11/04 05:19:24;;;;;;;69.87;34.73;;;7.10;94.50;;;;;;5060670;28;20191;-92
2021/11/04 05:21:50;;;;;;;64.30;34.13;;;7.10;94.50;;;;;;5060465;28;20180;-92
2021/11/04 05:24:16;;;;;;;76.03;36.43;;;7.10;94.50;;;;;;5059497;28;20206;-91
2021/11/04 05:26:42;;;;;;;70.10;36.33;;;7.10;94.50;;;;;;5060603;28;20587;-92
2021/11/04 05:29:08;;;;;;;69.27;34.93;;;7.10;94.50;;;;;;5060109;28;20638;-92
2021/11/04 05:31:34;;;;;;;79.97;35.63;;;7.10;94.50;;;;;;5060100;28;20172;-90
2021/11/04 05:34:00;;;;;;;71.53;35.27;;;7.10;94.50;;;;;;5059654;28;20225;-92
2021/11/04 05:36:26;;;;;;;70.97;35.77;;;7.10;94.50;;;;;;5063567;28;20256;-91
2021/11/04 05:38:53;;;;;;;72.17;36.33;;;7.10;94.60;;;;;;5063880;28;20175;-92
2021/11/04 05:41:19;;;;;;;70.50;34.93;;;7.10;94.50;;;;;;5063085;28;20666;-91
2021/11/04 05:43:44;;;;;;;71.97;35.40;;;7.10;94.60;;;;;;5062997;28;20210;-91
2021/11/04 05:46:11;;;;;;;67.73;33.97;;;7.10;94.50;;;;;;5062744;28;20191;-91
2021/11/04 05:48:37;;;;;;;69.03;35.87;;;7.10;94.50;;;;;;5062847;28;20168;-91
2021/11/04 05:51:03;;;;;;;71.07;35.33;;;7.00;94.60;;;;;;5062429;28;20182;-91
2021/11/04 05:53:29;;;;;;;72.47;34.77;;;7.00;94.60;;;;;;5063706;28;20175;-91
2021/11/04 05:55:54;;;;;;;71.60;35.37;;;7.00;94.60;;;;;;5063175;28;20226;-92
2021/11/04 05:58:20;;;;;;;76.57;36.53;;;7.10;94.60;;;;;;5062042;28;20187;-91
2021/11/04 06:00:46;;;;;;;73.07;35.67;;;7.00;94.60;;;;;;5062477;28;20182;-91
2021/11/04 06:03:13;;;;;;;75.30;36.63;;;7.00;94.60;;;;;;5062278;28;20225;-91
2021/11/04 06:05:40;;;;;;;73.30;36.73;;;7.00;94.60;;;;;;5080045;28;20179;-92
2021/11/04 06:08:05;;;;;;;68.60;36.37;;;7.00;94.60;;;;;;5060941;28;20243;-91
2021/11/04 06:10:32;;;;;;;70.90;36.60;;;7.00;94.60;;;;;;5059886;28;20207;-91
2021/11/04 06:12:57;;;;;;;71.30;35.47;;;7.00;94.70;;;;;;5060327;28;20186;-90
2021/11/04 06:15:23;;;;;;;75.13;36.27;;;7.00;94.70;;;;;;5060389;28;20302;-92
2021/11/04 06:17:49;;;;;;;73.13;36.17;;;7.00;94.70;;;;;;5060401;28;20494;-91
2021/11/04 06:20:14;;;;;;;74.20;36.93;;;7.00;94.70;;;;;;5060094;28;20615;-91
2021/11/04 06:22:40;;;;;;;70.13;35.67;;;7.00;94.70;;;;;;5060425;28;20179;-91
2021/11/04 06:25:06;;;;;;;70.27;35.43;;;7.00;94.70;;;;;;5078425;28;20253;-91
2021/11/04 06:27:32;;;;;;;68.53;36.33;;;7.00;94.70;;;;;;5060873;28;20171;-91
2021/11/04 06:29:58;;;;;;;69.73;35.10;;;7.00;94.70;;;;;;5078602;28;20602;-91
2021/11/04 06:32:24;;;;;;;73.03;35.03;;;7.00;94.70;;;;;;5061082;28;20197;-91
2021/11/04 06:34:50;;;;;;;69.37;35.47;;;7.00;94.70;;;;;;5060949;28;20226;-91
2021/11/04 06:37:15;;;;;;;66.40;34.43;;;7.00;94.70;;;;;;5061096;28;20206;-91
2021/11/04 06:39:41;;;;;;;70.43;35.33;;;7.00;94.70;;;;;;5079003;28;20179;-90
2021/11/04 06:42:07;;;;;;;69.53;34.80;;;7.00;94.70;;;;;;5061509;28;20282;-91
2021/11/04 06:44:33;;;;;;;66.20;35.67;;;7.00;94.70;;;;;;5061464;28;20679;-92
2021/11/04 06:47:01;;;;;;;65.70;34.13;;;7.00;94.80;;;;;;5078087;28;20168;-92
2021/11/04 06:49:32;;;;;;;64.03;33.90;;;7.00;94.80;;;;;;5060019;28;20171;-92
2021/11/04 06:51:58;;;;;;;70.10;34.40;;;7.00;94.80;;;;;;5059816;28;20168;-91
2021/11/04 06:54:25;;;;;;;71.10;34.37;;;7.00;94.80;;;;;;5059673;28;20541;-90
2021/11/04 06:56:52;;;;;;;71.30;35.83;;;7.00;94.80;;;;;;5060288;28;20205;-91
2021/11/04 06:59:24;;;;;;;64.93;34.67;;;7.10;94.80;;;;;;5059833;28;20240;-90
2021/11/04 07:01:58;;;;;;;68.77;35.43;;;7.10;94.80;;;;;;5060742;28;20175;-91
2021/11/04 07:04:27;;;;;;;68.03;36.47;;;7.10;94.80;;;;;;5077724;28;20265;-91
2021/11/04 07:07:02;;;;;;;66.23;35.50;;;7.10;94.80;;;;;;5058841;28;20201;-91
2021/11/04 07:09:32;;;;;;;69.20;35.07;;;7.10;94.90;;;;;;5058390;28;20258;-91
2021/11/04 07:11:59;;;;;;;72.63;35.60;;;7.10;94.80;;;;;;5057372;28;20172;-89
2021/11/04 07:14:30;;;;;;;68.50;35.00;;;7.10;94.80;;;;;;5057878;28;20180;-91
2021/11/04 07:16:57;;;;;;;64.90;34.97;;;7.20;94.90;;;;;;5057610;28;20198;-91
2021/11/04 07:19:24;;;;;;;72.90;36.23;;;7.10;94.90;;;;;;5057125;28;20187;-91
2021/11/04 07:22:00;;;;;;;66.93;33.80;;;7.20;94.80;;;;;;5057590;28;20665;-91
2021/11/04 07:24:32;;;;;;;62.33;33.27;;;7.20;94.80;;;;;;5056772;28;20241;-91
2021/11/04 07:27:11;;;;;;;69.23;35.67;;;7.20;94.80;;;;;;5057924;28;20186;-91
2021/11/04 07:29:42;;;;;;;63.73;33.40;;;7.20;94.80;;;;;;5057188;28;20205;-91
2021/11/04 07:32:12;;;;;;;72.23;36.07;;;7.20;94.80;;;;;;5057285;28;20170;-91
2021/11/04 07:34:40;;;;;;;70.37;36.17;;;7.20;94.80;;;;;;5056978;28;20178;-92
2021/11/04 07:37:09;;;;;;;69.37;36.57;;;7.20;94.80;;;;;;5056451;28;20183;-89
2021/11/04 07:39:35;;;;;;;63.93;35.17;;;7.20;94.80;;;;;;5074944;28;20182;-91
2021/11/04 07:42:01;;;;;;;68.27;36.53;;;7.20;94.80;;;;;;5074837;28;20176;-91
2021/11/04 07:44:27;;;;;;;66.90;35.10;;;7.20;94.80;;;;;;5056931;28;20207;-89
2021/11/04 07:46:53;;;;;;;62.23;35.87;;;7.20;94.80;;;;;;5056830;28;20186;-89
2021/11/04 07:49:19;;;;;;;69.67;36.83;;;7.20;94.80;;;;;;5056941;28;20266;-91
2021/11/04 07:51:46;;;;;;;66.23;36.80;;;7.20;94.80;;;;;;5058138;28;20275;-91
2021/11/04 07:54:11;;;;;;;70.60;36.73;;;7.20;94.80;;;;;;5057857;28;20228;-91
2021/11/04 07:56:37;;;;;;;68.97;35.83;;;7.30;94.80;;;;;;5057890;28;20198;-90
2021/11/04 07:59:03;;;;;;;69.93;38.50;;;7.30;94.80;;;;;;5057719;28;20276;-91
2021/11/04 08:01:28;;;;;;;65.63;36.93;;;7.20;94.80;;;;;;5057815;28;20179;-90
2021/11/04 08:03:54;;;;;;;63.50;37.20;;;7.30;94.80;;;;;;5057708;28;20328;-91
2021/11/04 08:06:20;;;;;;;67.80;37.57;;;7.30;94.80;;;;;;5057611;28;20195;-90
2021/11/04 08:08:46;;;;;;;65.20;37.50;;;7.30;94.80;;;;;;5056979;28;20631;-90
2021/11/04 08:11:12;;;;;;;66.43;36.40;;;7.30;94.80;;;;;;5056361;28;20172;-91
2021/11/04 08:13:37;;;;;;;67.07;35.90;;;7.30;94.80;;;;;;5055512;28;20239;-91
2021/11/04 08:16:03;;;;;;;68.57;36.60;;;7.30;94.80;;;;;;5055463;28;20226;-90
2021/11/04 08:18:29;;;;;;;57.77;35.57;;;7.30;94.80;;;;;;5055670;28;20217;-91
2021/11/04 08:20:54;;;;;;;64.97;36.77;;;7.30;94.80;;;;;;5055993;28;20183;-91
2021/11/04 08:23:20;;;;;;;69.67;35.27;;;7.40;94.80;;;;;;5057207;28;20199;-91
2021/11/04 08:25:46;;;;;;;65.63;34.73;;;7.40;94.80;;;;;;5056786;28;20195;-91
2021/11/04 08:28:12;;;;;;;59.93;33.60;;;7.50;94.90;;;;;;5056595;28;20202;-91
2021/11/04 08:30:37;;;;;;;64.03;33.87;;;7.50;94.90;;;;;;5056751;28;20207;-91
2021/11/04 08:33:04;;;;;;;64.67;33.60;;;7.50;94.90;;;;;;5056434;28;20179;-92
2021/11/04 08:35:29;;;;;;;53.00;30.63;;;7.50;94.80;;;;;;5056430;28;20252;-91
2021/11/04 08:37:56;;;;;;;57.80;31.30;;;7.60;94.80;;;;;;5056350;28;20266;-91
2021/11/04 08:40:22;;;;;;;55.23;31.10;;;7.60;94.80;;;;;;5056707;28;20343;-93
2021/11/04 08:42:47;;;;;;;55.83;32.00;;;7.60;94.80;;;;;;5057497;28;20664;-91
2021/11/04 08:45:14;;;;;;;49.33;30.13;;;7.60;94.70;;;;;;5056126;28;20286;-90
2021/11/04 08:47:40;;;;;;;59.13;31.23;;;7.60;94.80;;;;;;5056197;28;20175;-91
2021/11/04 08:50:09;;;;;;;51.13;30.30;;;7.70;94.80;;;;;;5055731;28;20179;-91
2021/11/04 08:52:56;;;;;;;51.27;29.03;;;7.70;94.80;;;;;;5060066;28;20171;-91
2021/11/04 08:55:22;;;;;;;49.27;29.33;;;7.70;94.70;;;;;;5057323;28;20191;-90
2021/11/04 08:57:49;;;;;;;51.27;26.87;;;7.70;94.70;;;;;;5056949;28;20177;-90
2021/11/04 09:00:24;;;;;;;46.53;26.53;;;7.70;94.70;;;;;;5074995;28;20171;-90
2021/11/04 09:02:49;;;;;;;41.60;24.93;;;7.80;94.70;;;;;;5074036;28;20156;-90
2021/11/04 09:05:15;;;;;;;42.93;25.37;;;7.80;94.70;;;;;;5055566;28;20710;-89
2021/11/04 09:07:41;;;;;;;38.27;23.57;;;7.80;94.70;;;;;;5055988;28;20176;-90
2021/11/04 09:10:08;;;;;;;34.90;21.73;;;7.80;94.70;;;;;;5056694;28;20206;-90
2021/11/04 09:12:35;;;;;;;35.90;22.13;;;7.90;94.70;;;;;;5060152;28;20182;-89
2021/11/04 09:15:03;;;;;;;36.60;20.47;;;7.90;94.60;;;;;;5059652;28;20217;-90
2021/11/04 09:17:29;;;;;;;31.70;19.73;;;7.90;94.60;;;;;;5077487;28;20183;-92
2021/11/04 09:19:55;;;;;;;33.30;20.33;;;7.90;94.50;;;;;;5059214;28;20176;-92
2021/11/04 09:22:20;;;;;;;31.17;19.47;;;7.80;94.40;;;;;;5059731;28;20174;-91
2021/11/04 09:24:53;;;;;;;31.53;19.13;;;7.90;94.40;;;;;;5060188;28;20210;-91
2021/11/04 09:27:19;;;;;;;34.73;20.30;;;7.80;94.30;;;;;;5060971;28;20673;-92
2021/11/04 09:29:46;;;;;;;28.50;18.13;;;7.80;94.20;;;;;;5060724;28;20175;-91
2021/11/04 09:32:13;;;;;;;32.10;18.17;;;7.90;94.20;;;;;;5060919;28;20547;-92
2021/11/04 09:34:39;;;;;;;35.30;19.30;;;7.90;94.10;;;;;;5060630;28;20176;-91
2021/11/04 09:37:11;;;;;;;35.33;20.00;;;7.90;94.00;;;;;;5059728;28;20233;-90
2021/11/04 09:39:37;;;;;;;33.23;18.80;;;7.90;94.00;;;;;;5059546;28;20187;-91
2021/11/04 09:42:04;;;;;;;34.50;19.23;;;7.90;94.00;;;;;;5060181;28;20180;-90
2021/11/04 09:44:30;;;;;;;33.73;18.20;;;7.90;94.00;;;;;;5064806;28;20196;-91
2021/11/04 09:46:56;;;;;;;32.93;19.77;;;7.90;94.00;;;;;;5067363;28;20270;-91
2021/11/04 09:49:22;;;;;;;28.10;18.93;;;8.00;94.00;;;;;;5059869;28;20209;-91
2021/11/04 09:51:49;;;;;;;37.40;18.27;;;8.00;94.00;;;;;;5063066;28;20171;-92
2021/11/04 09:54:14;;;;;;;31.57;18.47;;;8.00;93.90;;;;;;5086801;28;20193;-92
2021/11/04 09:56:40;;;;;;;29.63;17.80;;;8.00;93.90;;;;;;5062808;28;20667;-91
2021/11/04 09:59:06;;;;;;;29.37;17.43;;;8.00;93.90;;;;;;5061021;28;20202;-90
2021/11/04 10:01:34;;;;;;;24.53;16.27;;;8.00;93.90;;;;;;5058587;28;20191;-90
2021/11/04 10:04:02;;;;;;;27.27;16.97;;;8.00;93.80;;;;;;5058803;28;20205;-90
2021/11/04 10:06:33;;;;;;;28.80;17.80;;;8.10;93.80;;;;;;5076598;28;20259;-90
2021/11/04 10:09:03;;;;;;;24.57;16.80;;;8.10;93.80;;;;;;5058849;28;20160;-90
2021/11/04 10:11:35;;;;;;;32.33;17.63;;;8.10;93.70;;;;;;5077041;28;20148;-91
2021/11/04 10:14:03;;;;;;;25.00;15.40;;;8.10;93.70;;;;;;5061326;28;20654;-91
2021/11/04 10:16:31;;;;;;;28.13;16.40;;;8.20;93.70;;;;;;5059041;28;20809;-91
2021/11/04 10:19:05;;;;;;;25.57;17.17;;;8.20;93.70;;;;;;5060035;28;20187;-91
2021/11/04 10:21:36;;;;;;;25.80;17.37;;;8.10;93.70;;;;;;5058521;28;20175;-91
2021/11/04 10:24:19;;;;;;;;;;;;;;;;;;;;;
2021/11/04 10:26:54;;;;;;;27.57;17.90;;;8.30;93.70;;;;;;5077666;28;20175;-90
2021/11/04 10:29:43;;;;;;;24.97;16.60;;;8.20;93.70;;;;;;5059885;28;20163;-91
2021/11/04 10:32:08;;;;;;;29.83;16.77;;;8.20;93.80;;;;;;5059662;28;20163;-91
2021/11/04 10:34:38;;;;;;;27.97;17.47;;;8.30;93.80;;;;;;5059780;28;20183;-92
2021/11/04 10:37:55;;;;;;;24.30;16.97;;;8.30;93.80;;;;;;5061954;28;20171;-91
2021/11/04 10:40:21;;;;;;;26.57;17.10;;;8.30;93.80;;;;;;5018626;28;20221;-89
2021/11/04 10:42:57;;;;;;;25.93;15.50;;;8.30;93.70;;;;;;5077373;28;20168;-91
2021/11/04 10:45:28;;;;;;;25.07;16.93;;;8.30;93.70;;;;;;5076417;28;20214;-90
2021/11/04 10:48:26;;;;;;;24.40;15.90;;;8.30;93.70;;;;;;5075270;28;20173;-90
2021/11/04 10:50:52;;;;;;;26.30;17.17;;;8.30;93.60;;;;;;5014344;28;20175;-90
2021/11/04 10:53:23;;;;;;;22.10;16.40;;;8.40;93.50;;;;;;5057284;28;20171;-90
2021/11/04 10:56:11;;;;;;;22.13;16.37;;;8.30;93.50;;;;;;5057267;28;20199;-90
2021/11/04 10:58:37;;;;;;;19.33;14.97;;;8.30;93.40;;;;;;5057704;28;20213;-90
2021/11/04 11:01:03;;;;;;;24.20;16.00;;;8.40;93.40;;;;;;5076025;28;20187;-89
2021/11/04 11:03:29;;;;;;;23.03;15.53;;;8.40;93.40;;;;;;5075442;28;20199;-91
2021/11/04 11:05:58;;;;;;;21.83;15.37;;;8.40;93.40;;;;;;5057485;28;20192;-92
2021/11/04 11:08:25;;;;;;;24.37;17.57;;;8.50;93.40;;;;;;5059321;28;20179;-91
2021/11/04 11:10:51;;;;;;;21.47;16.03;;;8.50;93.40;;;;;;5075931;28;20258;-91
2021/11/04 11:13:17;;;;;;;22.10;15.50;;;8.50;93.40;;;;;;5057850;28;20266;-91
2021/11/04 11:15:45;;;;;;;18.20;14.33;;;8.50;93.30;;;;;;5058396;28;20309;-92
2021/11/04 11:18:12;;;;;;;19.37;14.00;;;8.50;93.30;;;;;;5057744;28;20316;-92
2021/11/04 11:20:47;;;;;;;19.50;13.77;;;8.50;93.20;;;;;;5057897;28;20179;-91
2021/11/04 11:23:23;;;;;;;17.50;13.10;;;8.60;93.20;;;;;;5056607;28;20203;-91
2021/11/04 11:25:55;;;;;;;19.47;14.10;;;8.60;93.30;;;;;;5056731;28;20223;-92
2021/11/04 11:28:22;;;;;;;16.80;13.33;;;8.60;93.30;;;;;;5056627;28;20183;-91
2021/11/04 11:31:13;;;;;;;16.77;12.97;;;8.60;93.10;;;;;;5057302;28;20175;-91
2021/11/04 11:34:10;;;;;;;17.40;13.03;;;8.60;93.00;;;;;;5074132;28;20178;-91
2021/11/04 11:36:38;;;;;;;16.83;11.73;;;8.60;93.00;;;;;;5074193;28;20234;-92
2021/11/04 11:39:07;;;;;;;14.73;11.53;;;8.60;93.00;;;;;;5056764;28;20187;-92
2021/11/04 11:41:53;;;;;;;15.23;12.03;;;8.60;92.90;;;;;;5056605;28;20186;-92
2021/11/04 11:44:40;;;;;;;14.20;11.63;;;8.70;92.70;;;;;;5056093;28;20206;-92
2021/11/04 11:47:08;;;;;;;14.40;11.67;;;8.70;92.70;;;;;;5056432;28;20223;-92
2021/11/04 11:49:41;;;;;;;15.33;11.60;;;8.70;92.60;;;;;;5056616;28;20198;-91
2021/11/04 11:52:26;;;;;;;16.17;11.77;;;8.70;92.70;;;;;;5056316;28;20186;-91
2021/11/04 11:54:58;;;;;;;15.70;11.00;;;8.70;92.50;;;;;;5056160;28;20206;-91
2021/11/04 11:57:24;;;;;;;12.87;11.37;;;8.70;92.40;;;;;;5056129;28;20175;-92
2021/11/04 11:59:59;;;;;;;15.93;12.27;;;8.70;92.30;;;;;;5074173;28;20213;-92
2021/11/04 12:02:38;;;;;;;15.33;12.63;;;8.70;92.30;;;;;;5057222;28;20170;-92
2021/11/04 12:05:22;;;;;;;14.47;11.90;;;8.70;92.40;;;;;;5056202;28;20218;-92
2021/11/04 12:07:49;;;;;;;16.20;12.33;;;8.70;92.40;;;;;;5055936;28;20265;-91
2021/11/04 12:10:37;;;;;;;17.23;11.67;;;8.70;92.40;;;;;;5056386;28;20175;-91
2021/11/04 12:13:03;;;;;;;15.07;11.20;;;8.70;92.30;;;;;;5055912;28;20606;-92
2021/11/04 12:15:29;;;;;;;14.53;12.20;;;8.70;92.30;;;;;;5055776;28;20297;-90
2021/11/04 12:18:14;;;;;;;15.87;11.67;;;8.70;92.40;;;;;;5055711;28;20253;-93
2021/11/04 12:20:55;;;;;;;16.80;11.53;;;8.80;92.40;;;;;;5055908;28;20232;-92
2021/11/04 12:23:29;;;;;;;14.03;11.57;;;8.80;92.40;;;;;;5074022;28;20283;-92
2021/11/04 12:25:54;;;;;;;13.80;10.97;;;8.80;92.40;;;;;;5056367;28;20248;-92
2021/11/04 12:28:20;;;;;;;19.43;11.83;;;8.80;92.40;;;;;;5055926;28;20179;-92
2021/11/04 12:30:47;;;;;;;16.87;11.33;;;8.80;92.50;;;;;;5056254;28;20232;-92
2021/11/04 12:33:14;;;;;;;14.23;11.33;;;8.80;92.50;;;;;;5073761;28;20172;-92
2021/11/04 12:35:46;;;;;;;12.97;10.50;;;8.80;92.40;;;;;;5073622;28;20194;-91
2021/11/04 12:38:37;;;;;;;12.20;10.37;;;8.80;92.30;;;;;;5055565;28;20175;-90
2021/11/04 12:41:15;;;;;;;11.87;10.60;;;8.80;92.30;;;;;;5048994;28;20183;-92
2021/11/04 12:43:41;;;;;;;12.43;9.80;;;8.80;92.30;;;;;;5055944;28;20195;-91